Main page
METAR-TAF:

METAR-TAF

Airports :

Kerry Airport

Killarney, Ireland

latitude: 52-10-51N, longitude: 9-31-26W, elevation: 34 m

Current weather observation

The report was made 3 hours and 20 minutes ago, at 19:30 UTC
Wind 5 kt from the Northeast, varying between North and East
Temperature 6°C
Humidity 81%
Pressure 1010 hPa
Visibility 10 km or more
Broken clouds at a height of 1800 ft

METAR: EIKY 201930Z 05005KT 350V090 9999 BKN018 06/03 Q1010

Time: 22:50 (22:50 UTC)

Forecast

The report was made 5 hours and 50 minutes ago, at 17:00 UTC
Forecast valid from 20 at 18 UTC to 20 at 21 UTC
Wind 9 kt from the Northeast
Visibility 10 km or more
Few clouds at a height of 2000 ft
Scattered clouds at a height of 3000 ft
Probability 30% :
Temporary
from 20 at 18 UTC to 20 at 21 UTC
Broken clouds at a height of 1300 ft

TAF: EIKY 201700Z 2018/2021 04009KT 9999 FEW020 SCT030 PROB30 TEMPO 2018/2021 BKN013

Weather observations and forecasts of more than 4000 airports (METAR and TAF reports).

The available stations are represented by yellow and red dots on the map.

Hover mouse over dot to see the name of the station.

Then click to see weather observations and forecasts.

To change the map : click on the green buttons with a black cross to zoom in, on the green button with a dash to zoom out, or on the green arrows for adjacent maps.


METAR-TAF: